sensor_id;sensor_type;location;lat;lon;timestamp;temperature;humidity
30381;DHT22;17169;50.966;11.038;2022-10-16T00:02:47;16.50;99.90
30381;DHT22;17169;50.966;11.038;2022-10-16T00:05:51;16.40;99.90
30381;DHT22;17169;50.966;11.038;2022-10-16T00:08:54;16.40;99.90
30381;DHT22;17169;50.966;11.038;2022-10-16T00:11:56;16.30;99.90
30381;DHT22;17169;50.966;11.038;2022-10-16T00:14:58;16.30;99.90
30381;DHT22;17169;50.966;11.038;2022-10-16T00:18:01;16.20;99.90
30381;DHT22;17169;50.966;11.038;2022-10-16T00:21:07;16.10;99.90
30381;DHT22;17169;50.966;11.038;2022-10-16T00:24:10;16.10;99.90
30381;DHT22;17169;50.966;11.038;2022-10-16T00:27:13;16.00;99.90
30381;DHT22;17169;50.966;11.038;2022-10-16T00:30:15;16.00;99.90
30381;DHT22;17169;50.966;11.038;2022-10-16T00:33:18;16.00;99.90
30381;DHT22;17169;50.966;11.038;2022-10-16T00:36:23;16.00;99.90
30381;DHT22;17169;50.966;11.038;2022-10-16T00:39:25;15.90;99.90
30381;DHT22;17169;50.966;11.038;2022-10-16T00:42:27;15.80;99.90
30381;DHT22;17169;50.966;11.038;2022-10-16T00:45:30;15.80;99.90
30381;DHT22;17169;50.966;11.038;2022-10-16T00:48:32;15.70;99.90
30381;DHT22;17169;50.966;11.038;2022-10-16T00:51:39;15.70;99.90
30381;DHT22;17169;50.966;11.038;2022-10-16T00:54:42;15.60;99.90
30381;DHT22;17169;50.966;11.038;2022-10-16T00:57:45;15.60;99.90
30381;DHT22;17169;50.966;11.038;2022-10-16T01:00:48;15.50;99.90
30381;DHT22;17169;50.966;11.038;2022-10-16T01:03:50;15.50;99.90
30381;DHT22;17169;50.966;11.038;2022-10-16T01:07:00;15.50;99.90
30381;DHT22;17169;50.966;11.038;2022-10-16T01:10:10;15.60;99.90
30381;DHT22;17169;50.966;11.038;2022-10-16T01:13:18;15.60;99.90
30381;DHT22;17169;50.966;11.038;2022-10-16T01:16:29;15.60;99.90
30381;DHT22;17169;50.966;11.038;2022-10-16T01:19:57;15.50;99.90
30381;DHT22;17169;50.966;11.038;2022-10-16T01:23:13;15.50;99.90
30381;DHT22;17169;50.966;11.038;2022-10-16T01:26:28;15.40;99.90
30381;DHT22;17169;50.966;11.038;2022-10-16T01:29:39;15.40;99.90
30381;DHT22;17169;50.966;11.038;2022-10-16T01:32:45;15.30;99.90
30381;DHT22;17169;50.966;11.038;2022-10-16T01:35:53;15.20;99.90
30381;DHT22;17169;50.966;11.038;2022-10-16T01:39:01;15.10;99.90
30381;DHT22;17169;50.966;11.038;2022-10-16T01:42:06;15.10;99.90
30381;DHT22;17169;50.966;11.038;2022-10-16T01:45:13;15.00;99.90
30381;DHT22;17169;50.966;11.038;2022-10-16T01:48:19;15.10;99.90
30381;DHT22;17169;50.966;11.038;2022-10-16T01:51:24;15.00;99.90
30381;DHT22;17169;50.966;11.038;2022-10-16T01:54:29;14.90;99.90
30381;DHT22;17169;50.966;11.038;2022-10-16T01:57:34;14.90;99.90
30381;DHT22;17169;50.966;11.038;2022-10-16T02:00:42;14.90;99.90
30381;DHT22;17169;50.966;11.038;2022-10-16T02:03:46;14.90;99.90
30381;DHT22;17169;50.966;11.038;2022-10-16T02:06:52;14.80;99.90
30381;DHT22;17169;50.966;11.038;2022-10-16T02:09:55;14.80;99.90
30381;DHT22;17169;50.966;11.038;2022-10-16T02:13:00;14.70;99.90
30381;DHT22;17169;50.966;11.038;2022-10-16T02:16:06;14.70;99.90
30381;DHT22;17169;50.966;11.038;2022-10-16T02:19:09;14.70;99.90
30381;DHT22;17169;50.966;11.038;2022-10-16T02:22:16;14.70;99.90
30381;DHT22;17169;50.966;11.038;2022-10-16T02:25:24;14.70;99.90
30381;DHT22;17169;50.966;11.038;2022-10-16T02:28:30;14.70;99.90
30381;DHT22;17169;50.966;11.038;2022-10-16T02:31:42;14.70;99.90
30381;DHT22;17169;50.966;11.038;2022-10-16T02:34:48;14.60;99.90
30381;DHT22;17169;50.966;11.038;2022-10-16T02:37:52;14.60;99.90
30381;DHT22;17169;50.966;11.038;2022-10-16T02:40:54;14.60;99.90
30381;DHT22;17169;50.966;11.038;2022-10-16T02:43:57;14.60;99.90
30381;DHT22;17169;50.966;11.038;2022-10-16T02:47:01;14.60;99.90
30381;DHT22;17169;50.966;11.038;2022-10-16T02:50:04;14.60;99.90
30381;DHT22;17169;50.966;11.038;2022-10-16T02:53:06;14.70;99.90
30381;DHT22;17169;50.966;11.038;2022-10-16T02:56:09;14.60;99.90
30381;DHT22;17169;50.966;11.038;2022-10-16T02:59:11;14.60;99.90
30381;DHT22;17169;50.966;11.038;2022-10-16T03:02:15;14.60;99.90
30381;DHT22;17169;50.966;11.038;2022-10-16T03:05:17;14.60;99.90
30381;DHT22;17169;50.966;11.038;2022-10-16T03:08:20;14.60;99.90
30381;DHT22;17169;50.966;11.038;2022-10-16T03:11:24;14.60;99.90
30381;DHT22;17169;50.966;11.038;2022-10-16T03:14:27;14.60;99.90
30381;DHT22;17169;50.966;11.038;2022-10-16T03:17:31;14.60;99.90
30381;DHT22;17169;50.966;11.038;2022-10-16T03:20:34;14.60;99.90
30381;DHT22;17169;50.966;11.038;2022-10-16T03:23:36;14.60;99.90
30381;DHT22;17169;50.966;11.038;2022-10-16T03:26:39;14.50;99.90
30381;DHT22;17169;50.966;11.038;2022-10-16T03:29:41;14.60;99.90
30381;DHT22;17169;50.966;11.038;2022-10-16T03:32:45;14.60;99.90
30381;DHT22;17169;50.966;11.038;2022-10-16T03:35:51;14.50;99.90
30381;DHT22;17169;50.966;11.038;2022-10-16T03:38:54;14.50;99.90
30381;DHT22;17169;50.966;11.038;2022-10-16T03:41:56;14.50;99.90
30381;DHT22;17169;50.966;11.038;2022-10-16T03:44:59;14.50;99.90
30381;DHT22;17169;50.966;11.038;2022-10-16T03:48:02;14.50;99.90
30381;DHT22;17169;50.966;11.038;2022-10-16T03:51:05;14.50;99.90
30381;DHT22;17169;50.966;11.038;2022-10-16T03:54:09;14.50;99.90
30381;DHT22;17169;50.966;11.038;2022-10-16T03:57:11;14.50;99.90
30381;DHT22;17169;50.966;11.038;2022-10-16T04:00:13;14.50;99.90
30381;DHT22;17169;50.966;11.038;2022-10-16T04:03:17;14.50;99.90
30381;DHT22;17169;50.966;11.038;2022-10-16T04:06:20;14.50;99.90
30381;DHT22;17169;50.966;11.038;2022-10-16T04:09:22;14.50;99.90
30381;DHT22;17169;50.966;11.038;2022-10-16T04:12:25;14.50;99.90
30381;DHT22;17169;50.966;11.038;2022-10-16T04:15:27;14.50;99.90
30381;DHT22;17169;50.966;11.038;2022-10-16T04:18:31;14.50;99.90
30381;DHT22;17169;50.966;11.038;2022-10-16T04:21:33;14.50;99.90
30381;DHT22;17169;50.966;11.038;2022-10-16T04:24:35;14.50;99.90
30381;DHT22;17169;50.966;11.038;2022-10-16T04:27:38;14.50;99.90
30381;DHT22;17169;50.966;11.038;2022-10-16T04:30:40;14.50;99.90
30381;DHT22;17169;50.966;11.038;2022-10-16T04:33:44;14.50;99.90
30381;DHT22;17169;50.966;11.038;2022-10-16T04:36:47;14.50;99.90
30381;DHT22;17169;50.966;11.038;2022-10-16T04:39:50;14.50;99.90
30381;DHT22;17169;50.966;11.038;2022-10-16T04:42:52;14.50;99.90
30381;DHT22;17169;50.966;11.038;2022-10-16T04:45:54;14.50;99.90
30381;DHT22;17169;50.966;11.038;2022-10-16T04:48:58;14.50;99.90
30381;DHT22;17169;50.966;11.038;2022-10-16T04:52:01;14.50;99.90
30381;DHT22;17169;50.966;11.038;2022-10-16T04:55:04;14.60;99.90
30381;DHT22;17169;50.966;11.038;2022-10-16T04:58:07;14.50;99.90
30381;DHT22;17169;50.966;11.038;2022-10-16T05:01:09;14.60;99.90
30381;DHT22;17169;50.966;11.038;2022-10-16T05:04:13;14.60;99.90
30381;DHT22;17169;50.966;11.038;2022-10-16T05:07:16;14.60;99.90
30381;DHT22;17169;50.966;11.038;2022-10-16T05:10:18;14.60;99.90
30381;DHT22;17169;50.966;11.038;2022-10-16T05:13:21;14.70;99.90
30381;DHT22;17169;50.966;11.038;2022-10-16T05:16:24;14.70;99.90
30381;DHT22;17169;50.966;11.038;2022-10-16T05:19:27;14.60;99.90
30381;DHT22;17169;50.966;11.038;2022-10-16T05:22:30;14.70;99.90
30381;DHT22;17169;50.966;11.038;2022-10-16T05:25:32;14.70;99.90
30381;DHT22;17169;50.966;11.038;2022-10-16T05:28:35;14.70;99.90
30381;DHT22;17169;50.966;11.038;2022-10-16T05:31:37;14.70;99.90
30381;DHT22;17169;50.966;11.038;2022-10-16T05:34:41;14.80;99.90
30381;DHT22;17169;50.966;11.038;2022-10-16T05:37:43;14.80;99.90
30381;DHT22;17169;50.966;11.038;2022-10-16T05:40:51;14.80;99.90
30381;DHT22;17169;50.966;11.038;2022-10-16T05:43:53;14.80;99.90
30381;DHT22;17169;50.966;11.038;2022-10-16T05:46:56;14.80;99.90
30381;DHT22;17169;50.966;11.038;2022-10-16T05:50:00;14.80;99.90
30381;DHT22;17169;50.966;11.038;2022-10-16T05:53:02;14.90;99.90
30381;DHT22;17169;50.966;11.038;2022-10-16T05:56:05;14.90;99.90
30381;DHT22;17169;50.966;11.038;2022-10-16T05:59:07;14.90;99.90
30381;DHT22;17169;50.966;11.038;2022-10-16T06:02:12;15.00;99.90
30381;DHT22;17169;50.966;11.038;2022-10-16T06:05:16;15.00;99.90
30381;DHT22;17169;50.966;11.038;2022-10-16T06:08:19;15.00;99.90
30381;DHT22;17169;50.966;11.038;2022-10-16T06:11:25;15.10;99.90
30381;DHT22;17169;50.966;11.038;2022-10-16T06:14:28;15.20;99.90
30381;DHT22;17169;50.966;11.038;2022-10-16T06:17:30;15.30;99.90
30381;DHT22;17169;50.966;11.038;2022-10-16T06:20:34;15.40;99.90
30381;DHT22;17169;50.966;11.038;2022-10-16T06:23:36;15.50;99.90
30381;DHT22;17169;50.966;11.038;2022-10-16T06:26:38;15.50;99.90
30381;DHT22;17169;50.966;11.038;2022-10-16T06:29:41;15.60;99.90
30381;DHT22;17169;50.966;11.038;2022-10-16T06:32:44;15.70;99.90
30381;DHT22;17169;50.966;11.038;2022-10-16T06:35:47;15.80;99.90
30381;DHT22;17169;50.966;11.038;2022-10-16T06:38:50;15.80;99.90
30381;DHT22;17169;50.966;11.038;2022-10-16T06:41:52;15.90;99.90
30381;DHT22;17169;50.966;11.038;2022-10-16T06:44:54;15.90;99.90
30381;DHT22;17169;50.966;11.038;2022-10-16T06:47:57;16.00;99.90
30381;DHT22;17169;50.966;11.038;2022-10-16T06:51:02;16.00;99.90
30381;DHT22;17169;50.966;11.038;2022-10-16T06:54:05;16.10;99.90
30381;DHT22;17169;50.966;11.038;2022-10-16T06:57:07;16.20;99.90
30381;DHT22;17169;50.966;11.038;2022-10-16T07:00:10;16.30;99.90
30381;DHT22;17169;50.966;11.038;2022-10-16T07:03:13;16.40;99.90
30381;DHT22;17169;50.966;11.038;2022-10-16T07:06:21;16.40;99.90
30381;DHT22;17169;50.966;11.038;2022-10-16T07:09:24;16.50;99.90
30381;DHT22;17169;50.966;11.038;2022-10-16T07:12:26;16.50;99.90
30381;DHT22;17169;50.966;11.038;2022-10-16T07:15:29;16.60;99.90
30381;DHT22;17169;50.966;11.038;2022-10-16T07:18:31;16.70;99.90
30381;DHT22;17169;50.966;11.038;2022-10-16T07:21:35;16.80;99.90
30381;DHT22;17169;50.966;11.038;2022-10-16T07:24:37;16.80;99.90
30381;DHT22;17169;50.966;11.038;2022-10-16T07:27:40;16.90;99.90
30381;DHT22;17169;50.966;11.038;2022-10-16T07:30:42;17.00;99.90
30381;DHT22;17169;50.966;11.038;2022-10-16T07:33:45;17.10;99.90
30381;DHT22;17169;50.966;11.038;2022-10-16T07:36:50;17.10;99.90
30381;DHT22;17169;50.966;11.038;2022-10-16T07:39:53;17.20;99.90
30381;DHT22;17169;50.966;11.038;2022-10-16T07:42:55;17.20;99.90
30381;DHT22;17169;50.966;11.038;2022-10-16T07:45:57;17.30;99.90
30381;DHT22;17169;50.966;11.038;2022-10-16T07:49:00;17.40;99.90
30381;DHT22;17169;50.966;11.038;2022-10-16T07:52:04;17.40;99.90
30381;DHT22;17169;50.966;11.038;2022-10-16T07:55:07;17.50;99.90
30381;DHT22;17169;50.966;11.038;2022-10-16T07:58:09;17.60;99.90
30381;DHT22;17169;50.966;11.038;2022-10-16T08:01:13;17.70;99.90
30381;DHT22;17169;50.966;11.038;2022-10-16T08:04:16;17.80;99.90
30381;DHT22;17169;50.966;11.038;2022-10-16T08:07:19;17.80;99.90
30381;DHT22;17169;50.966;11.038;2022-10-16T08:10:23;17.90;99.90
30381;DHT22;17169;50.966;11.038;2022-10-16T08:13:26;17.90;99.90
30381;DHT22;17169;50.966;11.038;2022-10-16T08:16:28;17.90;99.90
30381;DHT22;17169;50.966;11.038;2022-10-16T08:19:30;18.00;99.90
30381;DHT22;17169;50.966;11.038;2022-10-16T08:22:37;18.10;99.90
30381;DHT22;17169;50.966;11.038;2022-10-16T08:25:39;18.20;99.90
30381;DHT22;17169;50.966;11.038;2022-10-16T08:28:41;18.40;99.90
30381;DHT22;17169;50.966;11.038;2022-10-16T08:31:44;18.50;99.90
30381;DHT22;17169;50.966;11.038;2022-10-16T08:34:46;18.60;99.90
30381;DHT22;17169;50.966;11.038;2022-10-16T08:37:50;18.70;99.90
30381;DHT22;17169;50.966;11.038;2022-10-16T08:41:00;18.80;99.90
30381;DHT22;17169;50.966;11.038;2022-10-16T08:44:18;19.00;99.90
30381;DHT22;17169;50.966;11.038;2022-10-16T08:47:29;19.10;99.90
30381;DHT22;17169;50.966;11.038;2022-10-16T08:50:37;19.30;99.90
30381;DHT22;17169;50.966;11.038;2022-10-16T08:53:44;19.40;99.90
30381;DHT22;17169;50.966;11.038;2022-10-16T08:56:48;19.50;99.90
30381;DHT22;17169;50.966;11.038;2022-10-16T08:59:51;19.50;99.90
30381;DHT22;17169;50.966;11.038;2022-10-16T09:02:59;19.50;99.90
30381;DHT22;17169;50.966;11.038;2022-10-16T09:06:14;19.50;99.90
30381;DHT22;17169;50.966;11.038;2022-10-16T09:09:31;19.60;99.90
30381;DHT22;17169;50.966;11.038;2022-10-16T09:12:39;19.60;99.90
30381;DHT22;17169;50.966;11.038;2022-10-16T09:15:47;19.60;99.90
30381;DHT22;17169;50.966;11.038;2022-10-16T09:18:56;19.60;99.90
30381;DHT22;17169;50.966;11.038;2022-10-16T09:22:08;19.60;99.90
30381;DHT22;17169;50.966;11.038;2022-10-16T09:25:15;19.60;99.90
30381;DHT22;17169;50.966;11.038;2022-10-16T09:28:18;19.60;99.90
30381;DHT22;17169;50.966;11.038;2022-10-16T09:31:22;19.70;99.90
30381;DHT22;17169;50.966;11.038;2022-10-16T09:34:28;19.80;99.90
30381;DHT22;17169;50.966;11.038;2022-10-16T09:37:32;19.80;99.90
30381;DHT22;17169;50.966;11.038;2022-10-16T09:40:37;19.90;99.90
30381;DHT22;17169;50.966;11.038;2022-10-16T09:43:41;20.00;99.90
30381;DHT22;17169;50.966;11.038;2022-10-16T09:46:48;20.10;99.90
30381;DHT22;17169;50.966;11.038;2022-10-16T09:49:51;20.20;99.90
30381;DHT22;17169;50.966;11.038;2022-10-16T09:53:04;20.30;99.90
30381;DHT22;17169;50.966;11.038;2022-10-16T09:56:10;20.30;99.90
30381;DHT22;17169;50.966;11.038;2022-10-16T09:59:16;20.30;99.90
30381;DHT22;17169;50.966;11.038;2022-10-16T10:02:20;20.50;99.90
30381;DHT22;17169;50.966;11.038;2022-10-16T10:05:26;20.50;99.90
30381;DHT22;17169;50.966;11.038;2022-10-16T10:08:29;20.50;99.90
30381;DHT22;17169;50.966;11.038;2022-10-16T10:11:45;20.50;99.90
30381;DHT22;17169;50.966;11.038;2022-10-16T10:14:50;20.50;99.90
30381;DHT22;17169;50.966;11.038;2022-10-16T10:17:55;20.50;99.90
30381;DHT22;17169;50.966;11.038;2022-10-16T10:20:59;20.50;99.90
30381;DHT22;17169;50.966;11.038;2022-10-16T10:24:01;20.50;99.90
30381;DHT22;17169;50.966;11.038;2022-10-16T10:27:13;20.50;99.90
30381;DHT22;17169;50.966;11.038;2022-10-16T10:30:21;20.50;99.90
30381;DHT22;17169;50.966;11.038;2022-10-16T10:33:30;20.60;99.90
30381;DHT22;17169;50.966;11.038;2022-10-16T10:36:35;20.60;99.90
30381;DHT22;17169;50.966;11.038;2022-10-16T10:39:41;20.60;99.90
30381;DHT22;17169;50.966;11.038;2022-10-16T10:42:52;20.60;99.90
30381;DHT22;17169;50.966;11.038;2022-10-16T10:46:00;20.60;99.90
30381;DHT22;17169;50.966;11.038;2022-10-16T10:49:13;20.50;99.90
30381;DHT22;17169;50.966;11.038;2022-10-16T10:52:34;20.30;99.90
30381;DHT22;17169;50.966;11.038;2022-10-16T10:55:43;20.30;99.90
30381;DHT22;17169;50.966;11.038;2022-10-16T10:59:12;20.10;99.90
30381;DHT22;17169;50.966;11.038;2022-10-16T11:02:23;20.00;99.90
30381;DHT22;17169;50.966;11.038;2022-10-16T11:05:36;19.90;99.90
30381;DHT22;17169;50.966;11.038;2022-10-16T11:08:43;19.80;99.90
30381;DHT22;17169;50.966;11.038;2022-10-16T11:11:50;19.70;99.90
30381;DHT22;17169;50.966;11.038;2022-10-16T11:14:58;19.60;99.90
30381;DHT22;17169;50.966;11.038;2022-10-16T11:18:06;19.60;99.90
30381;DHT22;17169;50.966;11.038;2022-10-16T11:21:11;19.60;99.90
30381;DHT22;17169;50.966;11.038;2022-10-16T11:24:19;19.60;99.90
30381;DHT22;17169;50.966;11.038;2022-10-16T11:27:29;19.60;99.90
30381;DHT22;17169;50.966;11.038;2022-10-16T11:30:43;19.50;99.90
30381;DHT22;17169;50.966;11.038;2022-10-16T11:33:51;19.40;99.90
30381;DHT22;17169;50.966;11.038;2022-10-16T11:36:59;19.40;99.90
30381;DHT22;17169;50.966;11.038;2022-10-16T11:40:16;19.40;99.90
30381;DHT22;17169;50.966;11.038;2022-10-16T11:43:25;19.40;99.90
30381;DHT22;17169;50.966;11.038;2022-10-16T11:46:31;19.40;99.90
30381;DHT22;17169;50.966;11.038;2022-10-16T11:49:37;19.30;99.90
30381;DHT22;17169;50.966;11.038;2022-10-16T11:52:44;19.40;99.90
30381;DHT22;17169;50.966;11.038;2022-10-16T11:55:49;19.30;99.90
30381;DHT22;17169;50.966;11.038;2022-10-16T11:58:57;19.30;99.90
30381;DHT22;17169;50.966;11.038;2022-10-16T12:02:23;19.40;99.90
30381;DHT22;17169;50.966;11.038;2022-10-16T12:05:33;19.30;99.90
30381;DHT22;17169;50.966;11.038;2022-10-16T12:08:38;19.30;99.90
30381;DHT22;17169;50.966;11.038;2022-10-16T12:11:41;19.20;99.90
30381;DHT22;17169;50.966;11.038;2022-10-16T12:14:43;19.20;99.90
30381;DHT22;17169;50.966;11.038;2022-10-16T12:17:48;19.20;99.90
30381;DHT22;17169;50.966;11.038;2022-10-16T12:20:55;19.30;99.90
30381;DHT22;17169;50.966;11.038;2022-10-16T12:24:01;19.50;99.90
30381;DHT22;17169;50.966;11.038;2022-10-16T12:27:06;19.50;99.90
30381;DHT22;17169;50.966;11.038;2022-10-16T12:30:24;19.40;99.90
30381;DHT22;17169;50.966;11.038;2022-10-16T12:33:30;19.40;99.90
30381;DHT22;17169;50.966;11.038;2022-10-16T12:36:34;19.40;99.90
30381;DHT22;17169;50.966;11.038;2022-10-16T12:39:36;19.50;99.90
30381;DHT22;17169;50.966;11.038;2022-10-16T12:42:39;19.50;99.90
30381;DHT22;17169;50.966;11.038;2022-10-16T12:45:42;19.60;99.90
30381;DHT22;17169;50.966;11.038;2022-10-16T12:48:47;19.70;99.90
30381;DHT22;17169;50.966;11.038;2022-10-16T12:51:49;19.80;99.90
30381;DHT22;17169;50.966;11.038;2022-10-16T12:54:56;19.90;99.90
30381;DHT22;17169;50.966;11.038;2022-10-16T12:58:10;20.00;99.90
30381;DHT22;17169;50.966;11.038;2022-10-16T13:01:29;20.10;99.90
30381;DHT22;17169;50.966;11.038;2022-10-16T13:04:44;20.10;99.90
30381;DHT22;17169;50.966;11.038;2022-10-16T13:07:56;20.30;99.90
30381;DHT22;17169;50.966;11.038;2022-10-16T13:11:05;20.20;99.90
30381;DHT22;17169;50.966;11.038;2022-10-16T13:14:27;20.30;99.90
30381;DHT22;17169;50.966;11.038;2022-10-16T13:17:39;20.50;99.90
30381;DHT22;17169;50.966;11.038;2022-10-16T13:21:01;20.70;99.90
30381;DHT22;17169;50.966;11.038;2022-10-16T13:24:15;20.80;99.90
30381;DHT22;17169;50.966;11.038;2022-10-16T13:27:27;21.10;99.90
30381;DHT22;17169;50.966;11.038;2022-10-16T13:30:34;21.10;99.90
30381;DHT22;17169;50.966;11.038;2022-10-16T13:33:39;21.20;99.90
30381;DHT22;17169;50.966;11.038;2022-10-16T13:36:46;21.30;99.90
30381;DHT22;17169;50.966;11.038;2022-10-16T13:39:51;21.40;99.90
30381;DHT22;17169;50.966;11.038;2022-10-16T13:43:04;21.50;99.90
30381;DHT22;17169;50.966;11.038;2022-10-16T13:46:11;21.50;99.90
30381;DHT22;17169;50.966;11.038;2022-10-16T13:49:15;21.60;99.90
30381;DHT22;17169;50.966;11.038;2022-10-16T13:52:20;21.50;99.90
30381;DHT22;17169;50.966;11.038;2022-10-16T13:55:23;21.60;99.90
30381;DHT22;17169;50.966;11.038;2022-10-16T13:58:26;21.70;99.90
30381;DHT22;17169;50.966;11.038;2022-10-16T14:01:29;21.70;99.90
30381;DHT22;17169;50.966;11.038;2022-10-16T14:04:33;21.60;99.90
30381;DHT22;17169;50.966;11.038;2022-10-16T14:07:37;21.70;99.90
30381;DHT22;17169;50.966;11.038;2022-10-16T14:10:40;21.60;99.90
30381;DHT22;17169;50.966;11.038;2022-10-16T14:13:44;21.70;99.90
30381;DHT22;17169;50.966;11.038;2022-10-16T14:16:48;21.70;99.90
30381;DHT22;17169;50.966;11.038;2022-10-16T14:19:52;21.60;99.90
30381;DHT22;17169;50.966;11.038;2022-10-16T14:23:01;21.50;99.90
30381;DHT22;17169;50.966;11.038;2022-10-16T14:26:14;21.50;99.90
30381;DHT22;17169;50.966;11.038;2022-10-16T14:29:19;21.40;99.90
30381;DHT22;17169;50.966;11.038;2022-10-16T14:32:23;21.30;99.90
30381;DHT22;17169;50.966;11.038;2022-10-16T14:35:29;21.20;99.90
30381;DHT22;17169;50.966;11.038;2022-10-16T14:38:33;21.10;99.90
30381;DHT22;17169;50.966;11.038;2022-10-16T14:41:42;21.10;99.90
30381;DHT22;17169;50.966;11.038;2022-10-16T14:44:46;21.00;99.90
30381;DHT22;17169;50.966;11.038;2022-10-16T14:47:52;20.90;99.90
30381;DHT22;17169;50.966;11.038;2022-10-16T14:50:55;20.90;99.90
30381;DHT22;17169;50.966;11.038;2022-10-16T14:53:59;21.00;99.90
30381;DHT22;17169;50.966;11.038;2022-10-16T14:57:02;20.90;99.90
30381;DHT22;17169;50.966;11.038;2022-10-16T15:00:13;20.90;99.90
30381;DHT22;17169;50.966;11.038;2022-10-16T15:03:17;20.80;99.90
30381;DHT22;17169;50.966;11.038;2022-10-16T15:09:25;20.80;99.90
30381;DHT22;17169;50.966;11.038;2022-10-16T15:12:28;20.70;99.90
30381;DHT22;17169;50.966;11.038;2022-10-16T15:15:37;20.60;99.90
30381;DHT22;17169;50.966;11.038;2022-10-16T15:18:40;20.60;99.90
30381;DHT22;17169;50.966;11.038;2022-10-16T15:21:42;20.70;99.90
30381;DHT22;17169;50.966;11.038;2022-10-16T15:24:46;20.60;99.90
30381;DHT22;17169;50.966;11.038;2022-10-16T15:27:49;20.50;99.90
30381;DHT22;17169;50.966;11.038;2022-10-16T15:30:52;20.50;99.90
30381;DHT22;17169;50.966;11.038;2022-10-16T15:33:55;20.50;99.90
30381;DHT22;17169;50.966;11.038;2022-10-16T15:37:02;20.50;99.90
30381;DHT22;17169;50.966;11.038;2022-10-16T15:40:08;20.50;99.90
30381;DHT22;17169;50.966;11.038;2022-10-16T15:43:11;20.40;99.90
30381;DHT22;17169;50.966;11.038;2022-10-16T15:46:17;20.30;99.90
30381;DHT22;17169;50.966;11.038;2022-10-16T15:49:19;20.20;99.90
30381;DHT22;17169;50.966;11.038;2022-10-16T15:52:21;20.10;99.90
30381;DHT22;17169;50.966;11.038;2022-10-16T15:55:25;20.00;99.90
30381;DHT22;17169;50.966;11.038;2022-10-16T15:58:28;19.90;99.90
30381;DHT22;17169;50.966;11.038;2022-10-16T16:01:32;19.80;99.90
30381;DHT22;17169;50.966;11.038;2022-10-16T16:04:35;19.70;99.90
30381;DHT22;17169;50.966;11.038;2022-10-16T16:07:38;19.60;99.90
30381;DHT22;17169;50.966;11.038;2022-10-16T16:10:42;19.50;99.90
30381;DHT22;17169;50.966;11.038;2022-10-16T16:13:44;19.50;99.90
30381;DHT22;17169;50.966;11.038;2022-10-16T16:16:47;19.40;99.90
30381;DHT22;17169;50.966;11.038;2022-10-16T16:19:49;19.30;99.90
30381;DHT22;17169;50.966;11.038;2022-10-16T16:22:51;19.20;99.90
30381;DHT22;17169;50.966;11.038;2022-10-16T16:26:06;19.10;99.90
30381;DHT22;17169;50.966;11.038;2022-10-16T16:29:10;19.00;99.90
30381;DHT22;17169;50.966;11.038;2022-10-16T16:32:13;18.90;99.90
30381;DHT22;17169;50.966;11.038;2022-10-16T16:35:15;18.90;99.90
30381;DHT22;17169;50.966;11.038;2022-10-16T16:38:18;18.80;99.90
30381;DHT22;17169;50.966;11.038;2022-10-16T16:41:23;18.70;99.90
30381;DHT22;17169;50.966;11.038;2022-10-16T16:44:26;18.60;99.90
30381;DHT22;17169;50.966;11.038;2022-10-16T16:47:29;18.50;99.90
30381;DHT22;17169;50.966;11.038;2022-10-16T16:50:35;18.40;99.90
30381;DHT22;17169;50.966;11.038;2022-10-16T16:53:37;18.40;99.90
30381;DHT22;17169;50.966;11.038;2022-10-16T16:56:41;18.30;99.90
30381;DHT22;17169;50.966;11.038;2022-10-16T16:59:45;18.30;99.90
30381;DHT22;17169;50.966;11.038;2022-10-16T17:02:48;18.30;99.90
30381;DHT22;17169;50.966;11.038;2022-10-16T17:05:57;18.30;99.90
30381;DHT22;17169;50.966;11.038;2022-10-16T17:09:01;18.20;99.90
30381;DHT22;17169;50.966;11.038;2022-10-16T17:12:05;18.20;99.90
30381;DHT22;17169;50.966;11.038;2022-10-16T17:15:09;18.20;99.90
30381;DHT22;17169;50.966;11.038;2022-10-16T17:18:11;18.20;99.90
30381;DHT22;17169;50.966;11.038;2022-10-16T17:21:13;18.20;99.90
30381;DHT22;17169;50.966;11.038;2022-10-16T17:24:16;18.10;99.90
30381;DHT22;17169;50.966;11.038;2022-10-16T17:27:21;18.10;99.90
30381;DHT22;17169;50.966;11.038;2022-10-16T17:30:23;18.10;99.90
30381;DHT22;17169;50.966;11.038;2022-10-16T17:33:26;18.00;99.90
30381;DHT22;17169;50.966;11.038;2022-10-16T17:36:30;17.90;99.90
30381;DHT22;17169;50.966;11.038;2022-10-16T17:39:34;17.90;99.90
30381;DHT22;17169;50.966;11.038;2022-10-16T17:42:37;17.80;99.90
30381;DHT22;17169;50.966;11.038;2022-10-16T17:45:40;17.80;99.90
30381;DHT22;17169;50.966;11.038;2022-10-16T17:48:44;17.80;99.90
30381;DHT22;17169;50.966;11.038;2022-10-16T17:51:49;17.70;99.90
30381;DHT22;17169;50.966;11.038;2022-10-16T17:54:52;17.70;99.90
30381;DHT22;17169;50.966;11.038;2022-10-16T17:57:56;17.60;99.90
30381;DHT22;17169;50.966;11.038;2022-10-16T18:00:58;17.60;99.90
30381;DHT22;17169;50.966;11.038;2022-10-16T18:04:03;17.60;99.90
30381;DHT22;17169;50.966;11.038;2022-10-16T18:07:07;17.60;99.90
30381;DHT22;17169;50.966;11.038;2022-10-16T18:10:09;17.60;99.90
30381;DHT22;17169;50.966;11.038;2022-10-16T18:13:13;17.50;99.90
30381;DHT22;17169;50.966;11.038;2022-10-16T18:16:16;17.50;99.90
30381;DHT22;17169;50.966;11.038;2022-10-16T18:19:18;17.40;99.90
30381;DHT22;17169;50.966;11.038;2022-10-16T18:22:21;17.40;99.90
30381;DHT22;17169;50.966;11.038;2022-10-16T18:25:23;17.40;99.90
30381;DHT22;17169;50.966;11.038;2022-10-16T18:28:27;17.40;99.90
30381;DHT22;17169;50.966;11.038;2022-10-16T18:31:30;17.30;99.90
30381;DHT22;17169;50.966;11.038;2022-10-16T18:34:33;17.30;99.90
30381;DHT22;17169;50.966;11.038;2022-10-16T18:37:37;17.30;99.90
30381;DHT22;17169;50.966;11.038;2022-10-16T18:40:39;17.30;99.90
30381;DHT22;17169;50.966;11.038;2022-10-16T18:43:43;17.30;99.90
30381;DHT22;17169;50.966;11.038;2022-10-16T18:46:45;17.30;99.90
30381;DHT22;17169;50.966;11.038;2022-10-16T18:49:48;17.20;99.90
30381;DHT22;17169;50.966;11.038;2022-10-16T18:52:50;17.30;99.90
30381;DHT22;17169;50.966;11.038;2022-10-16T18:55:53;17.20;99.90
30381;DHT22;17169;50.966;11.038;2022-10-16T18:58:58;17.10;99.90
30381;DHT22;17169;50.966;11.038;2022-10-16T19:02:01;17.10;99.90
30381;DHT22;17169;50.966;11.038;2022-10-16T19:05:04;17.00;99.90
30381;DHT22;17169;50.966;11.038;2022-10-16T19:08:07;17.00;99.90
30381;DHT22;17169;50.966;11.038;2022-10-16T19:11:11;16.90;99.90
30381;DHT22;17169;50.966;11.038;2022-10-16T19:14:16;16.90;99.90